createdAt,value
2022-09-21T00:01:43.590Z,5.85
2022-09-21T00:04:12.224Z,5.50
2022-09-21T00:06:40.779Z,5.60
2022-09-21T00:09:09.655Z,5.57
2022-09-21T00:11:38.683Z,6.00
2022-09-21T00:14:12.233Z,5.32
2022-09-21T00:16:44.345Z,5.45
2022-09-21T00:19:13.713Z,5.95
2022-09-21T00:21:42.514Z,5.60
2022-09-21T00:24:12.020Z,5.32
2022-09-21T00:26:40.544Z,4.95
2022-09-21T00:29:09.354Z,5.05
2022-09-21T00:31:37.929Z,5.80
2022-09-21T00:34:08.119Z,5.63
2022-09-21T00:36:37.157Z,5.07
2022-09-21T00:39:05.825Z,5.05
2022-09-21T00:41:35.910Z,5.57
2022-09-21T00:44:31.092Z,5.55
2022-09-21T00:47:09.138Z,5.10
2022-09-21T00:49:41.572Z,5.20
2022-09-21T00:52:14.885Z,5.07
2022-09-21T00:54:51.839Z,4.63
2022-09-21T00:57:25.390Z,4.72
2022-09-21T01:00:01.846Z,5.03
2022-09-21T01:02:30.828Z,5.60
2022-09-21T01:05:02.032Z,5.13
2022-09-21T01:07:35.145Z,4.78
2022-09-21T01:10:10.165Z,4.43
2022-09-21T01:13:01.900Z,4.55
2022-09-21T01:15:42.874Z,4.93
2022-09-21T01:18:21.278Z,4.55
2022-09-21T01:21:18.578Z,4.78
2022-09-21T01:24:21.213Z,4.40
2022-09-21T01:27:50.779Z,4.07
2022-09-21T01:30:23.937Z,5.10
2022-09-21T01:33:03.178Z,4.35
2022-09-21T01:35:39.110Z,4.30
2022-09-21T01:38:13.738Z,4.07
2022-09-21T01:40:46.853Z,4.35
2022-09-21T01:43:25.482Z,4.53
2022-09-21T01:46:02.168Z,4.70
2022-09-21T01:48:37.813Z,4.30
2022-09-21T01:51:11.528Z,4.60
2022-09-21T01:58:20.300Z,4.88
2022-09-21T02:00:56.442Z,4.50
2022-09-21T02:03:32.009Z,4.63
2022-09-21T02:06:02.355Z,4.72
2022-09-21T02:08:33.268Z,4.85
2022-09-21T02:11:04.143Z,4.72
2022-09-21T02:13:38.951Z,4.30
2022-09-21T02:16:35.561Z,4.90
2022-09-21T02:19:22.318Z,4.10
2022-09-21T02:22:04.507Z,4.80
2022-09-21T02:24:43.374Z,5.05
2022-09-21T02:27:31.687Z,5.43
2022-09-21T02:30:09.827Z,4.82
2022-09-21T02:32:50.464Z,5.55
2022-09-21T02:35:33.784Z,6.18
2022-09-21T02:38:12.119Z,6.05
2022-09-21T02:40:51.715Z,5.50
2022-09-21T02:43:29.235Z,5.97
2022-09-21T02:46:05.418Z,6.15
2022-09-21T02:48:42.915Z,5.50
2022-09-21T02:51:16.940Z,6.13
2022-09-21T02:53:48.566Z,7.38
2022-09-21T02:56:18.587Z,7.03
2022-09-21T02:58:54.296Z,7.10
2022-09-21T03:01:26.032Z,6.55
2022-09-21T03:03:56.195Z,7.15
2022-09-21T03:06:24.902Z,6.80
2022-09-21T03:08:53.511Z,7.47
2022-09-21T03:11:22.446Z,7.60
2022-09-21T03:13:51.154Z,7.68
2022-09-21T03:16:20.129Z,7.88
2022-09-21T03:18:48.970Z,8.00
2022-09-21T03:21:19.177Z,7.88
2022-09-21T03:23:47.687Z,8.35
2022-09-21T03:26:16.869Z,8.02
2022-09-21T03:28:45.521Z,8.73
2022-09-21T03:31:14.075Z,8.40
2022-09-21T03:33:42.945Z,7.55
2022-09-21T03:36:11.951Z,8.52
2022-09-21T03:38:42.736Z,7.75
2022-09-21T03:41:11.812Z,7.63
2022-09-21T03:43:40.389Z,7.70
2022-09-21T03:46:09.028Z,7.72
2022-09-21T03:48:37.838Z,6.82
2022-09-21T03:51:06.844Z,8.55
2022-09-21T03:53:35.917Z,8.63
2022-09-21T03:56:06.509Z,9.13
2022-09-21T03:58:35.218Z,9.30
2022-09-21T04:01:04.960Z,8.60
2022-09-21T04:03:33.912Z,9.05
2022-09-21T04:06:02.526Z,8.55
2022-09-21T04:08:32.978Z,8.85
2022-09-21T04:11:02.487Z,7.95
2022-09-21T04:13:33.101Z,8.55
2022-09-21T04:16:02.136Z,8.52
2022-09-21T04:18:30.868Z,8.73
2022-09-21T04:20:59.588Z,7.60
2022-09-21T04:23:28.614Z,8.63
2022-09-21T04:25:58.063Z,9.00
2022-09-21T04:28:26.734Z,9.02
2022-09-21T04:30:56.722Z,9.27
2022-09-21T04:33:25.607Z,9.07
2022-09-21T04:35:56.883Z,9.65
2022-09-21T04:38:25.447Z,8.40
2022-09-21T04:40:58.743Z,8.45
2022-09-21T04:43:27.527Z,8.88
2022-09-21T04:45:57.676Z,8.85
2022-09-21T04:48:26.353Z,9.48
2022-09-21T04:50:54.921Z,8.50
2022-09-21T04:53:23.626Z,8.95
2022-09-21T04:55:52.648Z,9.60
2022-09-21T04:58:24.445Z,8.43
2022-09-21T05:00:55.261Z,8.45
2022-09-21T05:03:26.813Z,8.70
2022-09-21T05:05:58.037Z,9.13
2022-09-21T05:08:46.253Z,8.27
2022-09-21T05:11:19.090Z,7.90
2022-09-21T05:13:48.874Z,7.53
2022-09-21T05:20:55.294Z,8.40
2022-09-21T05:23:24.556Z,8.48
2022-09-21T05:25:53.554Z,8.30
2022-09-21T05:28:23.187Z,8.63
2022-09-21T05:31:16.694Z,8.77
2022-09-21T05:33:55.027Z,8.68
2022-09-21T05:36:49.522Z,7.90
2022-09-21T05:39:18.982Z,8.15
2022-09-21T05:46:33.763Z,8.13
2022-09-21T05:49:09.879Z,7.30
2022-09-21T05:51:51.745Z,12.43
2022-09-21T05:54:33.344Z,7.70
2022-09-21T05:57:12.353Z,7.47
2022-09-21T05:59:58.197Z,7.85
2022-09-21T06:02:49.996Z,7.07
2022-09-21T06:05:20.246Z,7.10
2022-09-21T06:07:50.464Z,6.68
2022-09-21T06:10:19.173Z,6.72
2022-09-21T06:12:47.913Z,7.00
2022-09-21T06:15:17.689Z,6.90
2022-09-21T06:17:46.191Z,7.20
2022-09-21T06:20:15.128Z,6.85
2022-09-21T06:22:43.733Z,7.07
2022-09-21T06:25:13.809Z,6.53
2022-09-21T06:27:42.562Z,7.20
2022-09-21T06:30:12.294Z,7.05
2022-09-21T06:32:40.853Z,5.68
2022-09-21T06:35:10.695Z,6.47
2022-09-21T06:37:40.232Z,6.22
2022-09-21T06:40:10.491Z,5.70
2022-09-21T06:42:40.657Z,5.95
2022-09-21T06:45:10.795Z,5.43
2022-09-21T06:47:39.566Z,5.35
2022-09-21T06:50:09.267Z,5.40
2022-09-21T06:52:38.704Z,5.13
2022-09-21T06:55:08.259Z,5.43
2022-09-21T06:57:37.215Z,5.00
2022-09-21T07:00:11.446Z,4.10
2022-09-21T07:02:44.133Z,4.30
2022-09-21T07:05:13.749Z,4.68
2022-09-21T07:07:42.319Z,4.50
2022-09-21T07:10:15.720Z,3.85
2022-09-21T07:12:46.043Z,3.72
2022-09-21T07:15:16.279Z,3.35
2022-09-21T07:17:51.688Z,3.35
2022-09-21T07:20:22.137Z,3.38
2022-09-21T07:22:51.446Z,3.38
2022-09-21T07:25:20.187Z,3.30
2022-09-21T07:27:48.942Z,3.17
2022-09-21T07:30:19.033Z,3.30
2022-09-21T07:37:18.611Z,2.63
2022-09-21T07:39:47.127Z,2.40
2022-09-21T07:42:15.682Z,1.92
2022-09-21T07:44:44.798Z,2.17
2022-09-21T10:50:42.071Z,1.10
2022-09-21T10:53:24.141Z,1.20
2022-09-21T10:56:14.949Z,1.30
2022-09-21T10:59:12.953Z,1.42
2022-09-21T11:01:46.878Z,1.27
2022-09-21T11:04:28.072Z,1.40
2022-09-21T11:07:10.229Z,1.15
2022-09-21T11:09:46.577Z,1.02
2022-09-21T11:12:37.569Z,1.50
2022-09-21T11:15:24.421Z,1.48
2022-09-21T11:18:04.534Z,1.48
2022-09-21T11:20:43.144Z,1.00
2022-09-21T11:23:26.026Z,1.10
2022-09-21T11:26:11.914Z,1.40
2022-09-21T11:28:51.880Z,1.00
2022-09-21T11:31:50.662Z,0.80
2022-09-21T11:34:44.982Z,0.70
2022-09-21T11:37:32.217Z,0.90
2022-09-21T11:40:20.536Z,0.90
2022-09-21T11:43:09.805Z,1.30
2022-09-21T11:46:00.385Z,0.80
2022-09-21T11:48:54.382Z,0.70
2022-09-21T11:51:50.588Z,0.90
2022-09-21T11:55:15.216Z,0.98
2022-09-21T11:57:55.199Z,0.90
2022-09-21T12:00:30.020Z,0.70
2022-09-21T12:03:41.785Z,1.30
2022-09-21T12:06:30.478Z,0.95
2022-09-21T12:09:47.536Z,0.88
2022-09-21T12:12:23.927Z,1.77
2022-09-21T12:15:04.333Z,0.70
2022-09-21T12:17:50.774Z,1.00
2022-09-21T12:20:32.632Z,0.70
2022-09-21T12:23:11.983Z,1.00
2022-09-21T12:25:48.193Z,0.60
2022-09-21T12:28:27.113Z,0.80
2022-09-21T12:31:05.476Z,0.70
2022-09-21T12:33:43.279Z,0.88
2022-09-21T12:36:18.841Z,0.80
2022-09-21T12:38:59.179Z,0.80
2022-09-21T12:41:39.551Z,0.70
2022-09-21T12:44:23.708Z,0.70
2022-09-21T12:47:09.533Z,1.33
2022-09-21T12:49:46.114Z,0.88
2022-09-21T12:52:25.591Z,1.42
2022-09-21T12:55:09.822Z,1.10
2022-09-21T13:01:00.815Z,1.40
2022-09-21T13:03:44.080Z,1.60
2022-09-21T13:06:44.602Z,1.17
2022-09-21T13:09:19.495Z,1.13
2022-09-21T13:11:57.809Z,1.10
2022-09-21T13:14:30.533Z,1.10
2022-09-21T13:17:03.204Z,1.15
2022-09-21T13:19:36.955Z,2.00
2022-09-21T13:22:22.460Z,1.30
2022-09-21T13:25:04.949Z,1.42
2022-09-21T13:28:24.460Z,1.60
2022-09-21T13:31:44.556Z,2.95
2022-09-21T13:34:35.851Z,1.00
2022-09-21T13:37:35.417Z,1.00
2022-09-21T13:40:50.400Z,0.68
2022-09-21T13:44:09.347Z,0.90
2022-09-21T13:46:57.995Z,1.10
2022-09-21T13:49:40.521Z,1.23
2022-09-21T13:52:35.445Z,1.40
2022-09-21T13:55:19.280Z,1.58
2022-09-21T13:57:55.952Z,1.50
2022-09-21T14:00:38.155Z,1.70
2022-09-21T14:03:24.279Z,1.92
2022-09-21T14:06:02.294Z,2.22
2022-09-21T14:08:37.134Z,1.77
2022-09-21T14:11:10.700Z,1.98
2022-09-21T14:13:47.177Z,1.60
2022-09-21T14:16:57.771Z,1.40
2022-09-21T14:20:03.494Z,1.10
2022-09-21T14:22:43.643Z,1.10
2022-09-21T14:25:51.214Z,0.80
2022-09-21T14:28:36.513Z,1.13
2022-09-21T14:31:16.399Z,0.90
2022-09-21T14:33:53.594Z,0.80
2022-09-21T14:36:31.154Z,0.90
2022-09-21T14:39:07.867Z,0.93
2022-09-21T14:41:43.620Z,1.08
2022-09-21T14:44:23.060Z,0.93
2022-09-21T14:47:17.633Z,0.80
2022-09-21T14:50:15.063Z,0.82
2022-09-21T14:53:08.206Z,0.60
2022-09-21T14:56:01.974Z,0.70
2022-09-21T14:58:52.140Z,0.65
2022-09-21T15:01:36.459Z,1.02
2022-09-21T15:04:30.235Z,1.00
2022-09-21T15:07:35.285Z,1.00
2022-09-21T15:10:43.626Z,1.20
2022-09-21T15:13:25.593Z,1.30
2022-09-21T15:16:20.286Z,1.25
2022-09-21T15:18:51.399Z,1.10
2022-09-21T15:21:28.064Z,1.30
2022-09-21T15:24:00.240Z,1.60
2022-09-21T15:26:34.584Z,1.52
2022-09-21T15:29:10.055Z,1.48
2022-09-21T15:31:42.944Z,1.92
2022-09-21T15:34:16.372Z,1.75
2022-09-21T15:36:46.130Z,1.70
2022-09-21T15:39:33.456Z,2.08
2022-09-21T15:42:22.885Z,2.50
2022-09-21T15:45:14.956Z,1.63
2022-09-21T15:47:45.102Z,1.58
2022-09-21T15:50:15.436Z,1.70
2022-09-21T15:52:52.398Z,1.80
2022-09-21T15:55:23.608Z,1.40
2022-09-21T15:57:56.363Z,1.42
2022-09-21T16:00:31.778Z,1.25
2022-09-21T16:03:06.753Z,1.60
2022-09-21T16:05:46.851Z,1.60
2022-09-21T16:08:28.257Z,1.25
2022-09-21T16:11:18.999Z,1.23
2022-09-21T16:14:06.070Z,1.25
2022-09-21T16:17:27.618Z,1.70
2022-09-21T16:20:20.145Z,1.00
2022-09-21T16:22:52.442Z,1.00
2022-09-21T16:25:34.355Z,1.00
2022-09-21T16:28:07.218Z,0.90
2022-09-21T16:30:48.737Z,0.98
2022-09-21T16:33:44.262Z,0.98
2022-09-21T16:36:42.317Z,1.00
2022-09-21T16:39:15.659Z,0.88
2022-09-21T16:41:55.263Z,1.10
2022-09-21T16:44:26.557Z,2.05
2022-09-21T16:46:59.818Z,1.55
2022-09-21T16:49:35.176Z,1.50
2022-09-21T16:52:05.332Z,1.67
2022-09-21T16:54:35.119Z,1.50
2022-09-21T16:57:06.244Z,1.70
2022-09-21T16:59:36.557Z,1.60
2022-09-21T17:02:06.100Z,1.58
2022-09-21T17:04:37.060Z,1.50
2022-09-21T17:07:06.128Z,1.90
2022-09-21T17:09:38.459Z,1.77
2022-09-21T17:12:11.763Z,1.90
2022-09-21T17:14:46.661Z,2.08
2022-09-21T17:17:20.764Z,2.08
2022-09-21T17:19:53.639Z,2.15
2022-09-21T17:22:23.628Z,1.95
2022-09-21T17:24:55.001Z,1.75
2022-09-21T17:27:29.263Z,2.03
2022-09-21T17:30:03.412Z,1.90
2022-09-21T17:32:36.489Z,1.88
2022-09-21T17:35:18.712Z,2.00
2022-09-21T17:37:47.569Z,2.67
2022-09-21T17:40:17.248Z,3.22
2022-09-21T17:42:48.392Z,3.92
2022-09-21T17:45:27.822Z,4.38
2022-09-21T17:47:57.306Z,3.97
2022-09-21T17:50:29.739Z,5.35
2022-09-21T17:53:16.521Z,5.13
2022-09-21T17:55:54.324Z,4.97
2022-09-21T17:58:46.029Z,3.83
2022-09-21T18:01:31.485Z,4.00
2022-09-21T18:04:01.156Z,4.20
2022-09-21T18:06:32.895Z,3.50
2022-09-21T18:09:02.254Z,4.18
2022-09-21T18:11:55.176Z,4.45
2022-09-21T18:14:35.956Z,4.82
2022-09-21T18:17:33.066Z,5.30
2022-09-21T18:20:22.967Z,4.65
2022-09-21T18:23:09.021Z,5.07
2022-09-21T18:25:47.815Z,5.68
2022-09-21T18:28:23.652Z,6.80
2022-09-21T18:31:08.957Z,6.75
2022-09-21T18:33:54.856Z,6.10
2022-09-21T18:36:32.719Z,6.55
2022-09-21T18:39:21.931Z,6.30
2022-09-21T18:42:16.773Z,6.60
2022-09-21T18:45:10.059Z,5.65
2022-09-21T18:47:50.872Z,6.30
2022-09-21T18:50:31.845Z,5.65
2022-09-21T18:53:13.979Z,7.18
2022-09-21T18:55:45.199Z,6.90
2022-09-21T18:58:16.069Z,5.90
2022-09-21T19:00:46.267Z,6.47
2022-09-21T19:03:18.898Z,5.20
2022-09-21T19:06:16.270Z,5.85
2022-09-21T19:08:55.919Z,5.70
2022-09-21T19:11:38.182Z,6.03
2022-09-21T19:14:19.337Z,6.22
2022-09-21T19:17:07.709Z,6.57
2022-09-21T19:19:50.987Z,8.07
2022-09-21T19:22:34.262Z,6.72
2022-09-21T19:25:15.171Z,6.70
2022-09-21T19:27:58.155Z,7.68
2022-09-21T19:30:28.131Z,6.60
2022-09-21T19:33:00.130Z,7.40
2022-09-21T19:35:32.541Z,7.40
2022-09-21T19:38:04.117Z,7.38
2022-09-21T19:40:35.808Z,8.02
2022-09-21T19:43:22.017Z,7.38
2022-09-21T19:46:06.923Z,7.95
2022-09-21T19:48:43.728Z,7.15
2022-09-21T19:51:21.101Z,6.55
2022-09-21T19:54:15.165Z,6.63
2022-09-21T19:57:03.641Z,5.68
2022-09-21T19:59:43.927Z,6.60
2022-09-21T20:02:19.979Z,7.00
2022-09-21T20:04:55.797Z,6.57
2022-09-21T20:07:42.743Z,6.70
2022-09-21T20:10:46.717Z,5.88
2022-09-21T20:13:32.181Z,6.05
2022-09-21T20:16:19.372Z,6.88
2022-09-21T20:18:56.674Z,5.88
2022-09-21T20:21:32.835Z,5.25
2022-09-21T20:24:04.747Z,5.78
2022-09-21T20:26:34.034Z,6.05
2022-09-21T20:29:03.181Z,5.32
2022-09-21T20:31:33.127Z,5.72
2022-09-21T20:34:01.865Z,6.88
2022-09-21T20:36:30.475Z,6.32
2022-09-21T20:39:00.073Z,5.80
2022-09-21T20:41:28.846Z,7.20
2022-09-21T20:43:58.524Z,6.40
2022-09-21T20:46:27.407Z,6.90
2022-09-21T20:49:04.692Z,6.47
2022-09-21T20:51:34.002Z,6.85
2022-09-21T20:54:03.858Z,5.90
2022-09-21T20:56:33.585Z,5.10
2022-09-21T20:59:02.163Z,5.25
2022-09-21T21:01:30.987Z,5.38
2022-09-21T21:04:03.594Z,4.78
2022-09-21T21:06:32.692Z,5.03
2022-09-21T21:09:02.037Z,4.53
2022-09-21T21:11:30.664Z,4.50
2022-09-21T21:13:59.508Z,4.68
2022-09-21T21:16:28.250Z,5.38
2022-09-21T21:18:57.375Z,5.00
2022-09-21T21:21:28.077Z,5.25
2022-09-21T21:24:14.718Z,5.03
2022-09-21T21:27:01.437Z,5.72
2022-09-21T21:29:31.581Z,5.30
2022-09-21T21:32:00.789Z,5.05
2022-09-21T21:34:29.787Z,5.03
2022-09-21T21:36:59.884Z,3.78
2022-09-21T21:39:28.683Z,5.30
2022-09-21T21:41:57.256Z,5.80
2022-09-21T21:44:25.823Z,5.13
2022-09-21T21:46:54.886Z,6.28
2022-09-21T21:49:23.741Z,6.60
2022-09-21T21:51:53.717Z,5.80
2022-09-21T21:54:25.830Z,6.55
2022-09-21T21:56:55.845Z,6.03
2022-09-21T21:59:25.517Z,5.78
2022-09-21T22:01:54.611Z,6.47
2022-09-21T22:04:27.081Z,6.03
2022-09-21T22:06:56.660Z,6.55
2022-09-21T22:09:26.561Z,5.03
2022-09-21T22:11:55.448Z,4.88
2022-09-21T22:14:24.184Z,6.13
2022-09-21T22:16:52.831Z,4.85
2022-09-21T22:19:22.182Z,5.20
2022-09-21T22:21:54.368Z,6.20
2022-09-21T22:24:23.886Z,5.60
2022-09-21T22:26:53.942Z,6.00
2022-09-21T22:29:22.521Z,5.47
2022-09-21T22:31:51.674Z,6.38
2022-09-21T22:34:20.980Z,5.65
2022-09-21T22:36:50.325Z,6.10
2022-09-21T22:39:19.151Z,5.53
2022-09-21T22:41:47.912Z,4.85
2022-09-21T22:44:17.937Z,5.05
2022-09-21T22:46:46.587Z,4.60
2022-09-21T22:49:15.308Z,4.07
2022-09-21T22:51:43.805Z,3.92
2022-09-21T22:54:12.389Z,4.15
2022-09-21T22:56:41.165Z,4.30
2022-09-21T22:59:09.721Z,4.10
2022-09-21T23:01:41.810Z,4.13
2022-09-21T23:04:13.835Z,4.45
2022-09-21T23:06:45.270Z,4.35
2022-09-21T23:09:18.496Z,4.03
2022-09-21T23:11:53.224Z,3.92
2022-09-21T23:14:23.748Z,4.15
2022-09-21T23:16:54.018Z,3.67
2022-09-21T23:19:22.795Z,3.20
2022-09-21T23:21:52.943Z,4.00
2022-09-21T23:24:21.997Z,4.15
2022-09-21T23:26:51.656Z,4.10
2022-09-21T23:29:20.495Z,3.58
2022-09-21T23:31:49.160Z,3.75
2022-09-21T23:34:19.449Z,4.40
2022-09-21T23:36:48.083Z,4.43
2022-09-21T23:39:17.132Z,3.45
2022-09-21T23:41:46.038Z,4.05
2022-09-21T23:44:14.781Z,3.53
2022-09-21T23:46:43.723Z,4.40
2022-09-21T23:49:12.578Z,4.53
2022-09-21T23:51:43.030Z,4.38
2022-09-21T23:54:11.807Z,4.18
2022-09-21T23:56:40.561Z,4.20
2022-09-21T23:59:09.781Z,4.70
